createdAt,value
2019-02-22T00:01:47.397Z,16.85
2019-02-22T00:04:21.458Z,14.55
2019-02-22T00:06:53.185Z,15.98
2019-02-22T00:09:25.887Z,16.52
2019-02-22T00:11:59.801Z,13.85
2019-02-22T00:14:31.624Z,11.55
2019-02-22T00:17:04.666Z,13.25
2019-02-22T00:19:36.316Z,10.30
2019-02-22T00:22:10.956Z,11.90
2019-02-22T00:24:42.791Z,9.98
2019-02-22T00:27:14.491Z,9.85
2019-02-22T00:29:46.057Z,9.20
2019-02-22T00:32:17.917Z,9.68
2019-02-22T00:34:49.412Z,9.30
2019-02-22T00:37:20.966Z,8.68
2019-02-22T00:39:52.518Z,9.65
2019-02-22T00:42:24.098Z,8.58
2019-02-22T00:44:56.765Z,8.35
2019-02-22T00:47:28.257Z,8.85
2019-02-22T00:49:59.837Z,8.13
2019-02-22T00:52:34.096Z,9.15
2019-02-22T00:55:05.723Z,6.83
2019-02-22T00:57:38.253Z,6.03
2019-02-22T01:00:09.951Z,5.83
2019-02-22T01:02:41.469Z,7.15
2019-02-22T01:05:13.168Z,5.35
2019-02-22T01:07:44.872Z,6.62
2019-02-22T01:10:16.676Z,4.65
2019-02-22T01:12:48.104Z,4.92
2019-02-22T01:15:19.701Z,5.03
2019-02-22T01:17:51.331Z,4.92
2019-02-22T01:20:22.895Z,7.22
2019-02-22T01:22:54.417Z,7.20
2019-02-22T01:25:25.845Z,6.62
2019-02-22T01:27:57.397Z,7.87
2019-02-22T01:30:28.942Z,8.50
2019-02-22T01:33:00.574Z,8.25
2019-02-22T01:35:32.254Z,6.03
2019-02-22T01:38:03.891Z,6.53
2019-02-22T01:40:43.841Z,6.35
2019-02-22T01:43:09.683Z,5.42
2019-02-22T01:45:42.055Z,7.60
2019-02-22T01:48:13.556Z,6.90
2019-02-22T01:50:45.031Z,8.53
2019-02-22T01:53:16.465Z,8.35
2019-02-22T01:55:47.893Z,6.03
2019-02-22T01:58:19.310Z,10.55
2019-02-22T02:00:50.854Z,8.33
2019-02-22T02:03:22.314Z,8.83
2019-02-22T02:05:53.895Z,8.73
2019-02-22T02:08:25.455Z,6.62
2019-02-22T02:10:56.908Z,7.55
2019-02-22T02:13:32.371Z,7.50
2019-02-22T02:16:03.928Z,7.45
2019-02-22T02:18:35.641Z,7.20
2019-02-22T02:21:07.108Z,6.97
2019-02-22T02:23:38.722Z,7.73
2019-02-22T02:26:10.266Z,7.10
2019-02-22T02:28:41.812Z,7.28
2019-02-22T02:31:13.431Z,7.43
2019-02-22T02:33:45.017Z,9.80
2019-02-22T02:36:16.653Z,9.70
2019-02-22T02:38:48.155Z,8.20
2019-02-22T02:41:19.627Z,6.70
2019-02-22T02:43:51.044Z,7.57
2019-02-22T02:46:22.523Z,8.30
2019-02-22T02:48:54.227Z,6.40
2019-02-22T02:51:25.719Z,6.83
2019-02-22T02:53:57.207Z,7.17
2019-02-22T02:56:28.713Z,6.13
2019-02-22T02:59:00.264Z,9.50
2019-02-22T03:01:31.727Z,7.63
2019-02-22T03:04:03.092Z,9.17
2019-02-22T03:07:02.643Z,8.53
2019-02-22T03:09:34.207Z,8.57
2019-02-22T03:12:05.728Z,10.83
2019-02-22T03:14:37.254Z,9.17
2019-02-22T03:17:08.756Z,9.60
2019-02-22T03:19:41.818Z,9.97
2019-02-22T03:22:13.269Z,7.30
2019-02-22T03:24:44.810Z,8.10
2019-02-22T03:27:16.278Z,9.90
2019-02-22T03:29:47.777Z,7.60
2019-02-22T03:32:19.410Z,6.23
2019-02-22T03:34:50.894Z,7.83
2019-02-22T03:37:22.573Z,7.90
2019-02-22T03:39:54.166Z,10.40
2019-02-22T03:42:25.607Z,9.33
2019-02-22T03:44:57.090Z,8.37
2019-02-22T03:47:28.520Z,10.00
2019-02-22T03:49:59.949Z,10.03
2019-02-22T03:52:35.951Z,7.67
2019-02-22T03:55:10.773Z,8.10
2019-02-22T03:57:42.164Z,9.93
2019-02-22T04:00:15.059Z,9.80
2019-02-22T04:02:46.622Z,8.27
2019-02-22T04:05:18.115Z,8.90
2019-02-22T04:07:49.637Z,7.77
2019-02-22T04:10:21.053Z,13.00
2019-02-22T04:12:52.492Z,12.53
2019-02-22T04:15:23.995Z,11.50
2019-02-22T04:17:56.793Z,10.53
2019-02-22T04:20:34.214Z,10.20
2019-02-22T04:23:05.735Z,15.43
2019-02-22T04:25:37.276Z,9.33
2019-02-22T04:28:08.764Z,8.97
2019-02-22T04:30:40.469Z,11.33
2019-02-22T04:33:12.002Z,10.90
2019-02-22T04:35:51.829Z,8.53
2019-02-22T04:38:23.248Z,10.83
2019-02-22T04:40:57.574Z,8.43
2019-02-22T04:43:29.001Z,11.83
2019-02-22T04:46:00.633Z,8.57
2019-02-22T04:48:32.158Z,10.67
2019-02-22T04:51:03.843Z,11.93
2019-02-22T04:53:37.099Z,10.60
2019-02-22T04:56:11.466Z,7.53
2019-02-22T04:58:43.951Z,12.00
2019-02-22T05:01:17.070Z,9.50
2019-02-22T05:03:48.894Z,10.90
2019-02-22T05:06:20.500Z,14.67
2019-02-22T05:08:52.004Z,8.97
2019-02-22T05:11:23.571Z,10.37
2019-02-22T05:13:56.601Z,7.77
2019-02-22T05:16:28.299Z,12.87
2019-02-22T05:18:59.853Z,12.63
2019-02-22T05:21:31.233Z,9.13
2019-02-22T05:24:02.718Z,7.80
2019-02-22T05:26:34.253Z,9.00
2019-02-22T05:29:05.675Z,12.83
2019-02-22T05:31:46.542Z,17.80
2019-02-22T05:34:18.236Z,13.60
2019-02-22T05:36:51.119Z,16.57
2019-02-22T05:39:22.662Z,9.77
2019-02-22T05:41:54.100Z,9.73
2019-02-22T05:44:25.475Z,12.03
2019-02-22T05:47:00.800Z,9.23
2019-02-22T05:49:32.295Z,10.80
2019-02-22T05:52:04.836Z,13.77
2019-02-22T05:54:36.361Z,15.33
2019-02-22T05:57:07.841Z,12.90
2019-02-22T06:00:17.477Z,14.37
2019-02-22T06:02:52.466Z,14.97
2019-02-22T06:05:23.950Z,14.60
2019-02-22T06:07:55.427Z,9.13
2019-02-22T06:10:26.861Z,8.57
2019-02-22T06:12:58.398Z,17.50
2019-02-22T06:15:31.482Z,10.90
2019-02-22T06:18:03.265Z,11.93
2019-02-22T06:20:34.780Z,12.57
2019-02-22T06:23:06.372Z,9.70
2019-02-22T06:25:38.002Z,16.23
2019-02-22T06:28:09.425Z,15.00
2019-02-22T06:30:40.964Z,14.67
2019-02-22T06:33:15.336Z,16.40
2019-02-22T06:35:46.961Z,17.73
2019-02-22T06:38:18.490Z,15.77
2019-02-22T06:40:50.196Z,15.60
2019-02-22T06:43:21.660Z,13.03
2019-02-22T06:45:53.429Z,20.20
2019-02-22T06:48:24.947Z,86.90
2019-02-22T06:50:56.540Z,44.57
2019-02-22T06:53:28.035Z,16.10
2019-02-22T06:55:59.601Z,13.50
2019-02-22T06:58:31.099Z,11.80
2019-02-22T07:01:02.566Z,18.97
2019-02-22T07:03:34.266Z,19.87
2019-02-22T07:06:05.974Z,14.70
2019-02-22T07:08:37.478Z,14.90
2019-02-22T07:11:27.651Z,14.80
2019-02-22T07:13:59.281Z,14.33
2019-02-22T07:16:30.949Z,15.27
2019-02-22T07:19:03.853Z,12.67
2019-02-22T07:21:49.252Z,16.13
2019-02-22T07:24:08.960Z,14.60
2019-02-22T07:26:40.453Z,11.77
2019-02-22T07:29:11.929Z,17.13
2019-02-22T07:31:43.586Z,14.00
2019-02-22T07:34:15.133Z,16.43
2019-02-22T07:36:46.696Z,16.93
2019-02-22T07:39:27.340Z,18.17
2019-02-22T07:41:52.645Z,16.43
2019-02-22T07:44:25.302Z,11.50
2019-02-22T07:46:57.073Z,15.07
2019-02-22T07:49:28.890Z,16.53
2019-02-22T07:52:01.489Z,10.70
2019-02-22T07:54:33.189Z,13.57
2019-02-22T07:57:04.690Z,12.23
2019-02-22T07:59:36.418Z,8.87
2019-02-22T08:02:08.021Z,8.17
2019-02-22T08:04:45.314Z,12.90
2019-02-22T08:07:16.989Z,12.33
2019-02-22T08:09:48.653Z,11.10
2019-02-22T08:12:20.335Z,14.17
2019-02-22T08:14:51.955Z,6.67
2019-02-22T08:17:23.622Z,8.50
2019-02-22T08:19:56.157Z,9.77
2019-02-22T08:22:27.752Z,12.90
2019-02-22T08:24:59.462Z,14.27
2019-02-22T08:27:31.316Z,23.20
2019-02-22T08:30:04.124Z,22.83
2019-02-22T08:32:36.827Z,18.30
2019-02-22T08:35:11.718Z,17.03
2019-02-22T08:37:43.313Z,8.53
2019-02-22T08:40:18.881Z,23.63
2019-02-22T08:42:50.734Z,21.70
2019-02-22T08:45:23.381Z,11.37
2019-02-22T08:48:00.128Z,27.33
2019-02-22T08:50:31.650Z,10.90
2019-02-22T08:53:03.345Z,9.50
2019-02-22T08:55:36.721Z,10.80
2019-02-22T08:58:09.356Z,12.50
2019-02-22T09:00:43.446Z,12.47
2019-02-22T09:03:16.436Z,10.70
2019-02-22T09:05:48.157Z,12.53
2019-02-22T09:08:19.717Z,11.20
2019-02-22T09:11:00.174Z,10.30
2019-02-22T09:13:24.862Z,10.83
2019-02-22T09:16:05.459Z,11.40
2019-02-22T09:18:40.275Z,9.90
2019-02-22T09:21:16.539Z,12.63
2019-02-22T09:23:50.657Z,8.77
2019-02-22T09:26:25.556Z,8.10
2019-02-22T09:28:57.642Z,28.03
2019-02-22T09:31:29.152Z,10.85
2019-02-22T09:34:00.615Z,10.63
2019-02-22T09:36:34.939Z,15.15
2019-02-22T09:39:08.291Z,16.95
2019-02-22T09:41:39.759Z,19.10
2019-02-22T09:44:11.248Z,16.07
2019-02-22T09:46:42.650Z,13.63
2019-02-22T09:49:14.129Z,9.60
2019-02-22T09:51:45.765Z,12.47
2019-02-22T09:54:17.202Z,9.10
2019-02-22T09:56:50.806Z,10.77
2019-02-22T09:59:21.997Z,9.73
2019-02-22T10:01:53.513Z,12.50
2019-02-22T10:04:24.945Z,9.00
2019-02-22T10:06:56.503Z,9.08
2019-02-22T10:09:28.036Z,10.20
2019-02-22T10:11:59.534Z,16.97
2019-02-22T10:14:32.107Z,12.13
2019-02-22T10:17:03.624Z,11.03
2019-02-22T10:19:35.118Z,12.63
2019-02-22T10:22:06.945Z,10.90
2019-02-22T10:24:38.641Z,9.85
2019-02-22T10:27:12.047Z,14.30
2019-02-22T10:29:43.452Z,10.63
2019-02-22T10:32:16.014Z,9.00
2019-02-22T10:34:47.589Z,10.75
2019-02-22T10:37:19.047Z,11.10
2019-02-22T10:39:50.776Z,14.40
2019-02-22T10:42:22.349Z,12.25
2019-02-22T10:44:53.774Z,10.55
2019-02-22T10:47:25.770Z,9.00
2019-02-22T10:49:57.262Z,8.43
2019-02-22T10:52:28.682Z,13.35
2019-02-22T10:55:00.413Z,13.60
2019-02-22T10:57:31.962Z,10.63
2019-02-22T11:00:03.617Z,11.73
2019-02-22T11:02:35.353Z,9.50
2019-02-22T11:05:06.854Z,9.98
2019-02-22T11:07:38.820Z,8.15
2019-02-22T11:10:11.122Z,8.15
2019-02-22T11:12:43.805Z,7.05
2019-02-22T11:15:15.730Z,8.93
2019-02-22T11:17:47.158Z,13.35
2019-02-22T11:20:18.698Z,13.70
2019-02-22T11:22:50.277Z,9.85
2019-02-22T11:25:21.764Z,11.43
2019-02-22T11:27:54.373Z,7.70
2019-02-22T11:30:25.813Z,7.97
2019-02-22T11:32:57.227Z,10.48
2019-02-22T11:35:28.741Z,7.12
2019-02-22T11:38:00.188Z,11.80
2019-02-22T11:40:33.577Z,12.82
2019-02-22T11:43:04.969Z,12.67
2019-02-22T11:45:36.596Z,9.65
2019-02-22T11:48:09.387Z,5.08
2019-02-22T11:50:48.352Z,8.73
2019-02-22T11:53:20.150Z,6.70
2019-02-22T11:55:51.681Z,12.53
2019-02-22T11:58:23.189Z,7.35
2019-02-22T12:00:54.716Z,7.33
2019-02-22T12:03:26.248Z,7.28
2019-02-22T12:05:57.886Z,11.93
2019-02-22T12:08:29.401Z,14.90
2019-02-22T12:11:00.789Z,11.57
2019-02-22T12:13:32.563Z,10.75
2019-02-22T12:16:03.970Z,9.15
2019-02-22T12:18:36.802Z,7.75
2019-02-22T12:21:08.255Z,11.75
2019-02-22T12:23:39.910Z,8.87
2019-02-22T12:26:11.476Z,7.43
2019-02-22T12:28:42.903Z,11.83
2019-02-22T12:31:14.465Z,10.28
2019-02-22T12:33:45.866Z,14.47
2019-02-22T12:36:21.488Z,12.98
2019-02-22T12:38:53.380Z,12.87
2019-02-22T12:41:24.875Z,7.42
2019-02-22T12:43:56.458Z,13.58
2019-02-22T12:46:27.949Z,9.45
2019-02-22T12:48:59.470Z,7.55
2019-02-22T12:51:30.935Z,8.93
2019-02-22T12:54:02.326Z,6.90
2019-02-22T12:59:06.997Z,8.80
2019-02-22T13:01:38.564Z,6.93
2019-02-22T13:04:10.038Z,8.53
2019-02-22T13:06:41.589Z,8.67
2019-02-22T13:09:13.080Z,15.70
2019-02-22T13:11:44.598Z,14.03
2019-02-22T13:14:16.051Z,12.23
2019-02-22T13:16:47.545Z,12.33
2019-02-22T13:19:18.985Z,8.33
2019-02-22T13:21:50.511Z,12.78
2019-02-22T13:24:23.074Z,14.50
2019-02-22T13:26:54.541Z,10.70
2019-02-22T13:29:26.175Z,10.93
2019-02-22T13:31:57.686Z,12.87
2019-02-22T13:34:29.083Z,10.93
2019-02-22T13:37:00.725Z,13.47
2019-02-22T13:39:32.098Z,15.40
2019-02-22T13:42:03.494Z,8.80
2019-02-22T13:44:35.043Z,13.17
2019-02-22T13:47:06.564Z,8.20
2019-02-22T13:49:38.488Z,12.93
2019-02-22T13:52:10.479Z,9.97
2019-02-22T13:54:44.272Z,10.07
2019-02-22T13:57:15.219Z,9.80
2019-02-22T13:59:48.135Z,9.03
2019-02-22T14:02:19.689Z,10.03
2019-02-22T14:04:51.221Z,13.57
2019-02-22T14:07:22.887Z,10.07
2019-02-22T14:09:54.521Z,12.80
2019-02-22T14:12:26.006Z,14.83
2019-02-22T14:14:58.504Z,11.40
2019-02-22T14:17:30.079Z,16.43
2019-02-22T14:20:01.786Z,15.23
2019-02-22T14:22:34.792Z,18.57
2019-02-22T14:25:06.614Z,21.50
2019-02-22T14:27:39.117Z,18.83
2019-02-22T14:30:11.654Z,14.00
2019-02-22T14:32:43.166Z,11.07
2019-02-22T14:35:14.694Z,16.63
2019-02-22T14:37:46.810Z,13.27
2019-02-22T14:40:18.276Z,20.00
2019-02-22T14:42:50.788Z,11.80
2019-02-22T14:45:23.732Z,10.50
2019-02-22T14:47:55.347Z,19.30
2019-02-22T14:50:26.860Z,15.07
2019-02-22T14:52:58.488Z,10.53
2019-02-22T14:55:30.075Z,22.40
2019-02-22T14:58:01.634Z,14.43
2019-02-22T15:00:34.362Z,12.03
2019-02-22T15:03:05.958Z,16.07
2019-02-22T15:05:37.340Z,8.97
2019-02-22T15:08:08.915Z,10.67
2019-02-22T15:10:40.313Z,11.47
2019-02-22T15:13:12.696Z,17.40
2019-02-22T15:16:01.038Z,18.50
2019-02-22T15:18:31.824Z,25.73
2019-02-22T15:21:03.320Z,17.70
2019-02-22T15:23:34.847Z,17.80
2019-02-22T15:26:06.532Z,17.23
2019-02-22T15:28:38.113Z,17.77
2019-02-22T15:31:09.591Z,20.27
2019-02-22T15:33:41.103Z,14.10
2019-02-22T15:36:12.625Z,13.43
2019-02-22T15:38:44.140Z,20.47
2019-02-22T15:41:15.660Z,18.27
2019-02-22T15:43:47.148Z,18.40
2019-02-22T15:46:19.846Z,25.20
2019-02-22T15:48:51.407Z,28.53
2019-02-22T15:51:23.076Z,39.20
2019-02-22T15:53:54.592Z,32.83
2019-02-22T15:56:25.991Z,17.07
2019-02-22T15:58:57.568Z,24.00
2019-02-22T16:01:29.022Z,17.37
2019-02-22T16:04:22.932Z,26.20
2019-02-22T16:06:54.639Z,33.33
2019-02-22T16:09:26.140Z,35.20
2019-02-22T16:11:58.087Z,49.83
2019-02-22T16:14:29.836Z,42.97
2019-02-22T16:17:01.422Z,51.73
2019-02-22T16:19:34.416Z,51.93
2019-02-22T16:22:07.142Z,40.13
2019-02-22T16:24:38.754Z,53.17
2019-02-22T16:27:10.348Z,63.20
2019-02-22T16:29:41.958Z,49.07
2019-02-22T16:32:13.679Z,52.13
2019-02-22T16:34:46.769Z,55.90
2019-02-22T16:37:18.770Z,53.90
2019-02-22T16:39:52.410Z,60.23
2019-02-22T16:42:23.840Z,61.80
2019-02-22T16:44:55.396Z,56.00
2019-02-22T16:47:26.985Z,66.90
2019-02-22T16:49:58.676Z,81.67
2019-02-22T16:52:30.553Z,73.07
2019-02-22T16:55:02.373Z,81.73
2019-02-22T16:57:34.325Z,79.13
2019-02-22T17:00:06.793Z,81.33
2019-02-22T17:02:40.334Z,64.30
2019-02-22T17:05:13.793Z,55.30
2019-02-22T17:07:45.581Z,54.00
2019-02-22T17:10:17.523Z,51.87
2019-02-22T17:12:49.233Z,65.50
2019-02-22T17:15:21.138Z,66.70
2019-02-22T17:17:52.793Z,77.13
2019-02-22T17:20:24.420Z,81.93
2019-02-22T17:22:56.047Z,75.73
2019-02-22T17:25:27.751Z,81.37
2019-02-22T17:27:59.455Z,77.90
2019-02-22T17:30:31.165Z,86.43
2019-02-22T17:33:02.797Z,76.60
2019-02-22T17:35:34.781Z,94.97
2019-02-22T17:38:06.306Z,97.00
2019-02-22T17:40:38.405Z,101.50
2019-02-22T17:43:11.159Z,120.27
2019-02-22T17:45:42.978Z,112.73
2019-02-22T17:48:16.040Z,121.47
2019-02-22T17:50:48.149Z,115.27
2019-02-22T17:53:20.391Z,95.40
2019-02-22T17:55:53.321Z,92.57
2019-02-22T17:58:25.036Z,79.47
2019-02-22T18:00:56.613Z,89.97
2019-02-22T18:03:29.646Z,96.27
2019-02-22T18:06:01.196Z,104.57
2019-02-22T18:08:32.817Z,101.37
2019-02-22T18:11:05.914Z,111.07
2019-02-22T18:13:37.630Z,104.63
2019-02-22T18:16:10.013Z,71.03
2019-02-22T18:18:41.590Z,71.10
2019-02-22T18:21:13.364Z,91.97
2019-02-22T18:23:45.107Z,65.50
2019-02-22T18:26:17.122Z,64.80
2019-02-22T18:28:48.725Z,63.87
2019-02-22T18:31:20.282Z,65.77
2019-02-22T18:33:52.137Z,65.70
2019-02-22T18:36:23.620Z,99.70
2019-02-22T18:38:55.434Z,109.20
2019-02-22T18:41:27.076Z,150.33
2019-02-22T18:43:59.012Z,118.57
2019-02-22T18:46:30.584Z,97.47
2019-02-22T18:49:02.338Z,84.30
2019-02-22T18:51:34.210Z,87.77
2019-02-22T18:54:05.767Z,86.73
2019-02-22T18:56:37.522Z,79.37
2019-02-22T18:59:09.102Z,87.40
2019-02-22T19:01:40.710Z,96.50
2019-02-22T19:04:12.198Z,109.27
2019-02-22T19:06:43.771Z,106.23
2019-02-22T19:09:15.296Z,101.57
2019-02-22T19:11:46.884Z,102.37
2019-02-22T19:14:18.639Z,102.40
2019-02-22T19:16:50.346Z,122.10
2019-02-22T19:19:21.997Z,138.93
2019-02-22T19:21:53.534Z,131.23
2019-02-22T19:24:25.049Z,126.00
2019-02-22T19:26:56.625Z,146.60
2019-02-22T19:29:28.168Z,195.03
2019-02-22T19:31:59.787Z,316.47
2019-02-22T19:34:31.221Z,284.30
2019-02-22T19:37:02.845Z,190.33
2019-02-22T19:39:34.679Z,231.97
2019-02-22T19:42:06.428Z,181.10
2019-02-22T19:44:38.054Z,161.30
2019-02-22T19:47:09.572Z,143.27
2019-02-22T19:49:42.268Z,175.40
2019-02-22T19:52:13.837Z,210.07
2019-02-22T19:54:45.273Z,213.23
2019-02-22T19:57:16.900Z,168.93
2019-02-22T20:00:09.527Z,159.33
2019-02-22T20:02:41.187Z,151.40
2019-02-22T20:05:12.736Z,152.20
2019-02-22T20:07:46.014Z,160.30
2019-02-22T20:10:18.531Z,190.80
2019-02-22T20:12:50.356Z,181.20
2019-02-22T20:15:22.049Z,272.87
2019-02-22T20:17:54.984Z,351.67
2019-02-22T20:20:26.907Z,541.77
2019-02-22T20:22:58.527Z,353.33
2019-02-22T20:25:30.063Z,291.77
2019-02-22T20:28:01.595Z,270.93
2019-02-22T20:30:33.068Z,224.83
2019-02-22T20:33:04.706Z,241.13
2019-02-22T20:35:36.170Z,228.33
2019-02-22T20:38:07.784Z,265.43
2019-02-22T20:40:39.473Z,268.80
2019-02-22T20:43:11.099Z,256.53
2019-02-22T20:45:42.667Z,190.17
2019-02-22T20:48:14.138Z,204.50
2019-02-22T20:50:45.571Z,172.77
2019-02-22T20:53:17.168Z,178.20
2019-02-22T20:55:48.662Z,199.50
2019-02-22T20:58:20.070Z,242.07
2019-02-22T21:00:51.580Z,396.97
2019-02-22T21:03:26.541Z,290.37
2019-02-22T21:05:59.491Z,263.73
2019-02-22T21:08:31.138Z,230.30
2019-02-22T21:11:02.745Z,248.80
2019-02-22T21:13:34.205Z,264.70
2019-02-22T21:16:05.679Z,174.00
2019-02-22T21:18:37.088Z,158.40
2019-02-22T21:21:08.638Z,226.57
2019-02-22T21:23:40.091Z,198.00
2019-02-22T21:26:11.598Z,221.27
2019-02-22T21:28:43.141Z,268.33
2019-02-22T21:31:14.648Z,241.93
2019-02-22T21:33:46.169Z,196.47
2019-02-22T21:36:18.601Z,193.43
2019-02-22T21:38:50.610Z,177.03
2019-02-22T21:41:25.817Z,192.37
2019-02-22T21:43:57.953Z,136.37
2019-02-22T22:11:24.299Z,45.65
2019-02-22T22:13:58.576Z,49.27
2019-02-22T22:16:33.055Z,53.55
2019-02-22T22:26:17.822Z,160.85
2019-02-22T22:28:50.807Z,148.77
2019-02-22T22:31:23.769Z,146.47
2019-02-22T22:33:58.178Z,123.10
2019-02-22T22:36:31.077Z,108.87
2019-02-22T22:39:04.626Z,131.77
2019-02-22T22:41:38.403Z,140.63
2019-02-22T22:44:17.009Z,128.70
2019-02-22T22:46:50.004Z,170.73
2019-02-22T22:49:22.983Z,187.63
2019-02-22T22:51:55.775Z,135.53
2019-02-22T22:54:28.627Z,128.80
2019-02-22T22:57:01.499Z,139.37
2019-02-22T22:59:34.292Z,128.17
2019-02-22T23:02:07.549Z,122.07
2019-02-22T23:04:40.707Z,127.63
2019-02-22T23:07:14.703Z,129.10
2019-02-22T23:09:47.504Z,142.13
2019-02-22T23:12:21.861Z,134.00
2019-02-22T23:14:55.156Z,128.77
2019-02-22T23:17:28.303Z,122.13
2019-02-22T23:20:01.698Z,140.33
2019-02-22T23:22:35.846Z,117.23
2019-02-22T23:25:09.380Z,144.90
2019-02-22T23:27:42.925Z,134.93
2019-02-22T23:30:15.946Z,135.47
2019-02-22T23:32:49.244Z,142.17
2019-02-22T23:35:23.282Z,151.83
2019-02-22T23:37:56.808Z,127.13
2019-02-22T23:40:30.258Z,132.87
2019-02-22T23:43:05.452Z,165.50
2019-02-22T23:45:38.730Z,183.67
2019-02-22T23:48:13.714Z,162.13
2019-02-22T23:50:46.491Z,143.90
2019-02-22T23:53:19.443Z,168.00
2019-02-22T23:55:53.269Z,182.83
2019-02-22T23:58:26.065Z,198.70
